Tiempo atmosférico en la estación meteorológica de Boadilla Fuente San Esteban, Salamanca (785 m.)



Fecha
DESCASC
Temp. máxima en grados centígrados (hora)
DESCASC
Temp. mínima en grados centígrados (hora)
DESCASC
Temp. media en grados centígrados
DESCASC
Racha de viento máxima en m/sg (hora)
DESCASC
Velocidad máxima media en intervalos de 10 minutos(hora)
DESCASC
Precipitaciones diarias en mm
DESCASC
Precipitaciones de 00:00 a 06:00 en mm
DESCASC
Precipitaciones de 06:00 a 12:00 en mm
DESCASC
Precipitaciones de 12:00 a 18:00 en mm
DESCASC
Precipitaciones de 18:00 a 24:00 en mm
DESCASC
21-02-2021 13 (04:10) 2.9 (11:40) 8 20.83 (04:50) 11.39 (04:40) 7.2 0 5.8 1.4 0
20-02-2021 12.6 (23:20) 6.5 (05:00) 9.6 16.67 (12:30) 11.11 (12:30) 0 0 0 0 0
19-02-2021 13.1 (16:50) 6.7 (05:40) 9.9 13.06 (17:50) 8.61 (17:50) 0 0 0 0 0
18-02-2021 12.2 (15:30) 6.9 (00:00) 9.5 13.33 (10:00) 8.61 (10:10) 0 0 0 0 0
17-02-2021 13.7 (15:20) 7.8 (00:00) 10.8 10.83 (12:20) 6.67 (12:30) 0.2 0 0 0.2 0
16-02-2021 12.4 (15:20) 6.7 (00:00) 9.5 13.61 (13:40) 8.89 (12:10) 0.2 0 0 0 0.2
15-02-2021 17.5 (16:20) 1.1 (00:00) 9.3 8.89 (17:10) 5.28 (17:10) 0 0 0 0 0
14-02-2021 16.6 (16:50) 2.7 (00:00) 9.7 6.67 (14:20) 4.17 (14:20) 0 0 0 0 0
13-02-2021 13.4 (16:40) 3.2 (00:00) 8.3 4.72 (15:20) 3.33 (23:10) 0 0 0 0 0
12-02-2021 12.3 (15:50) 6.6 (00:00) 9.5 14.44 (04:10) 7.22 (03:50) 8.2 8.2 0 0 0
11-02-2021 13.2 (14:10) 9.7 (00:00) 11.4 10.56 (14:00) 6.67 (14:50) 0.4 0 0 0.4 0
10-02-2021 12 (15:40) 5 (00:00) 8.5 14.72 (02:20) 8.61 (01:40) 3.4 3.4 0 0 0
09-02-2021 7.9 (15:50) 3.3 (00:00) 5.6 16.39 (11:50) 9.72 (11:50) 23 1.2 14.2 6.4 1.2
08-02-2021 7.9 (14:20) 3.8 (00:00) 5.9 15 (15:20) 9.72 (15:20) 13.4 7.2 5.8 0.4 0
07-02-2021 7.2 (23:10) 1.5 (00:00) 4.3 12.78 (21:30) 8.06 (21:30) 3 0 0 1 2
06-02-2021 8.6 (15:00) 4.5 (00:00) 6.6 9.72 (16:20) 7.22 (16:10) 6.6 2.4 3 1 0.2
05-02-2021 9.3 (12:20) 5.4 (00:00) 7.4 8.33 (03:20) 5.83 (03:20) 16.4 5.4 2.4 4.2 4.4
04-02-2021 8.1 (02:00) 5 (00:00) 6.6 7.78 (17:00) 5.28 (17:00) 20.6 0.4 11.2 8.6 0.4
03-02-2021 10.7 (12:30) 7.7 (00:00) 9.2 13.61 (04:40) 8.06 (06:30) 7.2 0 1.2 5 1
02-02-2021 11.7 (14:00) 8.6 (10:00) 10.2 13.33 (22:40) 8.89 (22:30) 0.2 0.2 0 0 0
01-02-2021 12.3 (17:10) 6.9 (00:00) 9.6 13.61 (00:10) 8.61 (00:20) 0 0 0 0 0
31-01-2021 13.7 (17:50) 6.1 (00:00) 9.9 12.78 (22:20) 8.06 (23:10) 1.6 0 1.2 0.4 0
30-01-2021 10.1 (00:20) 6 (00:00) 8.1 15.83 (05:20) 9.72 (11:40) 6.8 6 0.2 0 0.6
29-01-2021 15.9 (15:40) 7.9 (00:00) 11.9 11.94 (23:59) 7.5 (23:50) 0 0 0 0 0
28-01-2021 18.3 (16:10) 6 (00:00) 12.1 7.22 (17:50) 4.72 (16:30) 0.2 0 0.2 0 0
27-01-2021 15.1 (16:40) 7.6 (00:00) 11.4 6.39 (00:10) 3.33 (00:50) 0 0 0 0 0
26-01-2021 13.6 (15:10) 10.2 (00:00) 11.9 6.94 (13:50) 4.72 (13:50) 1 0 0.6 0.2 0.2
25-01-2021 11.5 (16:30) 8.1 (00:00) 9.8 12.78 (02:40) 7.78 (02:20) 2.8 0 1.2 1.6 0

Gráficas

Temp. máximas Temp. mínimas Temp. medias Precipitaciones Rachas de viento máximas Velocidades máximas media en intervalos de 10 minutos

Datos horarios

Fecha y hora oficial Temperatura (ºC) Velocidad del viento (km/h) Dirección del viento Racha (km/h) Dirección de racha Precipitación (mm) Presión (hPa) Tendencia (hPa) Humedad (%)
2021-02-23 23:00:00 3.8 4 Sudeste 8 Sudeste 0 -- -- 83
2021-02-23 22:00:00 4.7 0 Calma 6 Nordeste 0 -- -- 83
2021-02-23 21:00:00 6.8 3 Sur 9 Sur 0 -- -- 75
2021-02-23 20:00:00 8.3 4 Sur 11 Sur 0 -- -- 72
2021-02-23 19:00:00 11.2 8 Sur 19 Sur 0 -- -- 55
2021-02-23 18:00:00 12.6 14 Sur 27 Sudeste 0 -- -- 49
2021-02-23 17:00:00 13.5 14 Sudeste 23 Sudeste 0 -- -- 44
2021-02-23 16:00:00 13.6 15 Sudeste 23 Sudeste 0 -- -- 43
2021-02-23 15:00:00 13.8 13 Sudeste 25 Sudeste 0 -- -- 33
2021-02-23 14:00:00 13.2 6 Sudeste 17 Sudeste 0 -- -- 38
2021-02-23 13:00:00 11.9 2 Norte 11 Oeste 0 -- -- 47
2021-02-23 12:00:00 10.5 5 Oeste 13 Noroeste 0 -- -- 62
2021-02-23 11:00:00 9.2 0 Calma 8 Este 0 -- -- 69
2021-02-23 10:00:00 6.3 4 Sudeste 12 Sudeste 0 -- -- 81
2021-02-23 09:00:00 2 0 Calma 13 Sudeste 0 -- -- 88
2021-02-23 08:00:00 1.6 8 Sudeste 14 Este 0 -- -- 89
2021-02-23 07:00:00 1.4 6 Sudeste 14 Sudeste 0 -- -- 89
2021-02-23 06:00:00 1.6 8 Sudeste 13 Sudeste 0 -- -- 88
2021-02-23 05:00:00 2.3 8 Sudeste 13 Sudeste 0 -- -- 88
2021-02-23 04:00:00 1.9 4 Sudeste 14 Sudeste 0 -- -- 90
2021-02-23 03:00:00 2.4 11 Sudeste 17 Sudeste 0 -- -- 89
2021-02-23 02:00:00 3 8 Sudeste 16 Sudeste 0 -- -- 87
2021-02-23 01:00:00 2.7 5 Sudeste 10 Sudeste 0 -- -- 88
2021-02-23 00:00:00 3.6 10 Sudeste 13 Sudeste 0 -- -- 85
2021-02-22 23:00:00 3.5 8 Sudeste 14 Sudeste 0 -- -- 80
2021-02-22 22:00:00 3.8 9 Sudeste 14 Sudeste 0 -- -- 81
2021-02-22 21:00:00 5.1 9 Sudeste 12 Sudeste 0 -- -- 70
2021-02-22 20:00:00 6.3 0 Calma 4 Sudeste 0 -- -- 72
2021-02-22 19:00:00 10 0 Calma 6 Sudoeste 0 -- -- 51
2021-02-22 18:00:00 10.9 4 Oeste 14 Sudoeste 0 -- -- 43
2021-02-22 17:00:00 10.6 3 Oeste 14 Sudoeste 0 -- -- 42
2021-02-22 16:00:00 10.3 5 Oeste 16 Oeste 0 -- -- 52
2021-02-22 15:00:00 9.4 10 Oeste 17 Oeste 0 -- -- 52
2021-02-22 14:00:00 8.3 4 Sudoeste 18 Oeste 0 -- -- 58
2021-02-22 13:00:00 7.1 5 Oeste 15 Oeste 0.2 -- -- 69
2021-02-22 12:00:00 5.8 4 Oeste 16 Oeste 0 -- -- 74
2021-02-22 11:00:00 4.6 8 Oeste 14 Sudoeste 0 -- -- 81
2021-02-22 10:00:00 3.1 8 Sudoeste 14 Sudoeste 0 -- -- 93
2021-02-22 09:00:00 1 9 Sur 13 Sur 0 -- -- 97
2021-02-22 08:00:00 0.3 8 Sudoeste 12 Sudoeste 0 -- -- 97
2021-02-22 07:00:00 0.4 9 Sudoeste 13 Sur 0 -- -- 97
2021-02-22 06:00:00 0.5 8 Sudoeste 13 Sudoeste 0 -- -- 97
2021-02-22 05:00:00 0.7 6 Sudoeste 12 Sudoeste 0 -- -- 96
2021-02-22 04:00:00 1.5 8 Sudoeste 15 Oeste 0 -- -- 96
2021-02-22 03:00:00 2.2 10 Sudoeste 22 Oeste 0 -- -- 95
2021-02-22 02:00:00 3.6 11 Oeste 23 Oeste 0 -- -- 95
2021-02-22 01:00:00 3.6 8 Oeste 16 Oeste 0 -- -- 93
2021-02-22 00:00:00 4.2 8 Oeste 21 Oeste 0 -- -- 91
2021-02-21 23:00:00 4.3 9 Oeste 18 Oeste 0 -- -- 91
2021-02-21 22:00:00 5.1 10 Oeste 26 Oeste 0 -- -- 88
2021-02-21 21:00:00 5.2 8 Oeste 18 Oeste 0 -- -- 84
2021-02-21 20:00:00 5.5 9 Oeste 18 Oeste 0 -- -- 86
2021-02-21 19:00:00 5.9 9 Oeste 26 Oeste 0 -- -- 84
2021-02-21 18:00:00 6.3 13 Oeste 25 Oeste 0 -- -- 81
2021-02-21 17:00:00 5.9 13 Oeste 24 Oeste 0 -- -- 84
2021-02-21 16:00:00 5 15 Noroeste 32 Oeste 0 -- -- 89
2021-02-21 15:00:00 4.6 13 Sudoeste 19 Sudoeste 0 -- -- 94
2021-02-21 14:00:00 3.4 10 Sudoeste 17 Sur 0.2 -- -- 96
2021-02-21 13:00:00 3 7 Sur 13 Sudoeste 1.2 -- -- 95
2021-02-21 12:00:00 2.9 9 Sudoeste 19 Sudoeste 1 -- -- 95
2021-02-21 11:00:00 3.1 13 Sudoeste 28 Oeste 1 -- -- 95
2021-02-21 10:00:00 3.8 15 Oeste 35 Oeste 2.4 -- -- 94
2021-02-21 09:00:00 7.5 5 Sur 26 Sudoeste 0.8 -- -- 89
2021-02-21 08:00:00 8 16 Sur 54 Sur 0.6 -- -- 87
2021-02-21 07:00:00 9.2 33 Sur 72 Sur 0 -- -- 76
2021-02-21 06:00:00 10.4 34 Sur 60 Sur 0 -- -- 61
2021-02-21 05:00:00 11.7 39 Sur 75 Sudeste 0 -- -- 45
2021-02-21 04:00:00 12.7 36 Sur 67 Sudeste 0 -- -- 37
2021-02-21 03:00:00 12.7 33 Sur 59 Sudeste 0 -- -- 38
2021-02-21 02:00:00 12.2 24 Sur 41 Sudeste 0 -- -- 44
2021-02-21 01:00:00 12 27 Sur 46 Sur 0 -- -- 43
2021-02-21 00:00:00 12.1 24 Sur 45 Sur 0 -- -- 36
2021-02-20 23:00:00 12.3 30 Sur 53 Sudeste 0 -- -- 36
2021-02-20 22:00:00 11.9 19 Sur 53 Sur 0 -- -- 42
2021-02-20 21:00:00 11.8 29 Sur 50 Sudeste 0 -- -- 44
2021-02-20 20:00:00 11.5 25 Sur 52 Sur 0 -- -- 49
2021-02-20 19:00:00 11.7 28 Sur 54 Sur 0 -- -- 48
2021-02-20 18:00:00 12 30 Sur 46 Sur 0 -- -- 50
2021-02-20 17:00:00 12.1 30 Sur 53 Sudoeste 0 -- -- 53
2021-02-20 16:00:00 11.8 31 Sur 57 Sudoeste 0 -- -- 55
2021-02-20 15:00:00 12 35 Sur 53 Sur 0 -- -- 57
2021-02-20 14:00:00 12 31 Sur 53 Sur 0 -- -- 60
2021-02-20 13:00:00 11.2 34 Sur 60 Sur 0 -- -- 63
2021-02-20 12:00:00 10.4 36 Sur 58 Sur 0 -- -- 63
2021-02-20 11:00:00 10.1 35 Sur 58 Sur 0 -- -- 63
2021-02-20 10:00:00 9.2 23 Sur 47 Sur 0 -- -- 69
2021-02-20 09:00:00 8.8 22 Sur 41 Sur 0 -- -- 69
2021-02-20 08:00:00 8.4 21 Sur 42 Sur 0 -- -- 71
2021-02-20 07:00:00 8.3 19 Sur 35 Sur 0 -- -- 73
2021-02-20 06:00:00 7 8 Sudeste 21 Sur 0 -- -- 76
2021-02-20 05:00:00 6.5 0 Calma 13 Este 0 -- -- 76
2021-02-20 04:00:00 8 7 Sudeste 21 Sudeste 0 -- -- 73
2021-02-20 03:00:00 8.4 13 Sudeste 18 Sudeste 0 -- -- 72
2021-02-20 02:00:00 7.9 8 Sur 17 Sur 0 -- -- 74
2021-02-20 01:00:00 8.2 7 Sur 31 Sur 0 -- -- 73
2021-02-20 00:00:00 9.3 17 Sur 34 Sudoeste 0 -- -- 75
2021-02-19 23:00:00 8.5 14 Sudoeste 36 Sudoeste 0 -- -- 82
2021-02-19 22:00:00 9.1 19 Sur 36 Sur 0 -- -- 79
2021-02-19 21:00:00 9.5 13 Sur 37 Sur 0 -- -- 76
2021-02-19 20:00:00 9.8 17 Sur 33 Sur 0 -- -- 74
2021-02-19 19:00:00 10.4 21 Sudoeste 40 Sur 0 -- -- 68
2021-02-19 18:00:00 12.1 26 Sur 47 Sur 0 -- -- 55
2021-02-19 17:00:00 13.1 24 Sudoeste 40 Sudoeste 0 -- -- 52
2021-02-19 16:00:00 12.2 18 Sur 39 Sur 0 -- -- 59
2021-02-19 15:00:00 12.7 19 Sur 36 Sur 0 -- -- 56
2021-02-19 14:00:00 12.8 24 Sur 45 Sur 0 -- -- 52
2021-02-19 13:00:00 12.4 21 Sudoeste 45 Sudoeste 0 -- -- 55
2021-02-19 12:00:00 13 19 Sur 36 Sur 0 -- -- 57
2021-02-19 11:00:00 10.5 23 Sur 39 Sudoeste 0 -- -- 66
2021-02-19 10:00:00 9.5 12 Sur 26 Sudoeste 0 -- -- 71
2021-02-19 09:00:00 7.9 11 Sur 20 Sur 0 -- -- 75
2021-02-19 08:00:00 7.5 12 Sudoeste 21 Sudoeste 0 -- -- 76
2021-02-19 07:00:00 7.8 10 Sudoeste 21 Sudoeste 0 -- -- 76
2021-02-19 06:00:00 7.1 8 Sur 10 Sudoeste 0 -- -- 82
2021-02-19 05:00:00 7.7 4 Sur 11 Sudoeste 0 -- -- 79
2021-02-19 04:00:00 8.6 9 Sur 17 Sur 0 -- -- 75
2021-02-19 03:00:00 8.2 8 Sur 25 Sudoeste 0 -- -- 71
2021-02-19 02:00:00 9.5 14 Sur 32 Sur 0 -- -- 60
2021-02-19 01:00:00 10 11 Sur 19 Sudoeste 0 -- -- 70
2021-02-19 00:00:00 10.1 13 Sudoeste 21 Sudoeste 0 -- -- 75
2021-02-18 23:00:00 10.2 13 Sur 29 Sudoeste 0 -- -- 76
2021-02-18 22:00:00 10.1 15 Sudoeste 42 Sudoeste 0 -- -- 79
2021-02-18 21:00:00 10.5 12 Sudoeste 22 Sur 0 -- -- 75
2021-02-18 20:00:00 10.3 10 Sur 25 Sur 0 -- -- 77
2021-02-18 19:00:00 10.3 15 Sudoeste 35 Sudoeste 0 -- -- 78
2021-02-18 18:00:00 10.7 21 Sudoeste 35 Sur 0 -- -- 78
2021-02-18 17:00:00 10.8 15 Sudoeste 45 Sudoeste 0 -- -- 78
2021-02-18 16:00:00 12 23 Sudoeste 42 Sudoeste 0 -- -- 68
2021-02-18 15:00:00 11.9 23 Sudoeste 45 Sudoeste 0 -- -- 70
2021-02-18 14:00:00 11 26 Sudoeste 45 Sudoeste 0 -- -- 72
2021-02-18 13:00:00 11.5 27 Sudoeste 48 Sudoeste 0 -- -- 69
2021-02-18 12:00:00 10.5 25 Sudoeste 43 Sudoeste 0 -- -- 72
2021-02-18 11:00:00 9.9 26 Sudoeste 46 Sur 0 -- -- 74
2021-02-18 10:00:00 8.8 30 Sudoeste 48 Sur 0 -- -- 79
2021-02-18 09:00:00 8.3 19 Sudoeste 36 Sudoeste 0 -- -- 77
2021-02-18 08:00:00 8.6 16 Sur 33 Sur 0 -- -- 71
2021-02-18 07:00:00 8.3 15 Sur 24 Sur 0 -- -- 69
2021-02-18 06:00:00 7.8 11 Sudoeste 24 Sudoeste 0 -- -- 72
2021-02-18 05:00:00 8.4 16 Sur 26 Sur 0 -- -- 69
2021-02-18 04:00:00 8.7 13 Sur 37 Sudoeste 0 -- -- 72
2021-02-18 03:00:00 9.4 18 Sur 31 Sudoeste 0 -- -- 74
2021-02-18 02:00:00 9.3 16 Sur 24 Sur 0 -- -- 81
2021-02-18 01:00:00 9.4 14 Sudoeste 30 Sudoeste 0 -- -- 81
2021-02-18 00:00:00 10.4 18 Sur 30 Sur 0 -- -- 73
2021-02-17 23:00:00 10.8 19 Sur 30 Sur 0 -- -- 75
2021-02-17 22:00:00 10.6 17 Sur 26 Sur 0 -- -- 78
2021-02-17 21:00:00 9.8 8 Sur 21 Sur 0 -- -- 79
2021-02-17 20:00:00 10.5 13 Sur 20 Sur 0 -- -- 76
2021-02-17 19:00:00 12.2 10 Sur 18 Sur 0 -- -- 68
2021-02-17 18:00:00 13.3 8 Sudoeste 24 Sudoeste 0 -- -- 69
2021-02-17 17:00:00 12.9 16 Sudoeste 35 Sudoeste 0 -- -- 71
2021-02-17 16:00:00 13.2 19 Sudoeste 33 Sudoeste 0 -- -- 71
2021-02-17 15:00:00 13.4 23 Sudoeste 33 Sudoeste 0 -- -- 71
2021-02-17 14:00:00 12.8 20 Sudoeste 33 Sudoeste 0 -- -- 73
2021-02-17 13:00:00 12.4 18 Sudoeste 39 Sudoeste 0.2 -- -- 75
2021-02-17 12:00:00 11.5 18 Sudoeste 31 Sudoeste 0 -- -- 78
2021-02-17 11:00:00 10.8 15 Sudoeste 27 Sur 0 -- -- 84
2021-02-17 10:00:00 10 12 Sur 20 Sur 0 -- -- 87
2021-02-17 09:00:00 9.1 7 Sur 14 Sur 0 -- -- 93
2021-02-17 08:00:00 8.7 8 Sur 13 Sur 0 -- -- 93
2021-02-17 07:00:00 7.9 5 Sur 9 Sur 0 -- -- 95
2021-02-17 06:00:00 8.3 0 Calma 6 Sur 0 -- -- 94
2021-02-17 05:00:00 8.4 3 Sur 6 Sur 0 -- -- 95
2021-02-17 04:00:00 8.5 2 Sudoeste 4 Sudoeste 0 -- -- 95
2021-02-17 03:00:00 8.5 0 Calma 5 Oeste 0 -- -- 95
2021-02-17 02:00:00 8.7 4 Sudoeste 8 Sur 0 -- -- 94
2021-02-17 01:00:00 8.7 4 Sur 7 Oeste 0 -- -- 94
2021-02-17 00:00:00 9.2 3 Sudoeste 10 Sudoeste 0.2 -- -- 91
2021-02-16 23:00:00 9.5 4 Sur 9 Sudoeste 0 -- -- 87
2021-02-16 22:00:00 9.4 5 Sur 12 Sur 0 -- -- 87
2021-02-16 21:00:00 9.6 7 Sudoeste 13 Sudoeste 0 -- -- 85
2021-02-16 20:00:00 9.8 7 Sudoeste 22 Sudoeste 0 -- -- 84
2021-02-16 19:00:00 10.7 15 Sudoeste 29 Sur 0 -- -- 81
2021-02-16 18:00:00 11.2 17 Sudoeste 32 Sudoeste 0 -- -- 79
2021-02-16 17:00:00 11.3 19 Sudoeste 35 Sudoeste 0 -- -- 78
2021-02-16 16:00:00 11.7 22 Sudoeste 40 Sudoeste 0 -- -- 75
2021-02-16 15:00:00 11.8 25 Sudoeste 45 Sudoeste 0 -- -- 73
2021-02-16 14:00:00 12.2 26 Sudoeste 49 Sudoeste 0 -- -- 71
2021-02-16 13:00:00 11.8 28 Sudoeste 47 Sur 0 -- -- 69
2021-02-16 12:00:00 10.8 31 Sudoeste 48 Sudoeste 0 -- -- 72
2021-02-16 11:00:00 9.9 29 Sudoeste 48 Sudoeste 0 -- -- 75
2021-02-16 10:00:00 9.3 31 Sudoeste 49 Sudoeste 0 -- -- 74
2021-02-16 09:00:00 7.8 17 Sudoeste 33 Sudoeste 0 -- -- 77
2021-02-16 08:00:00 8.4 13 Oeste 31 Sur 0 -- -- 70
2021-02-16 07:00:00 9.5 15 Sudoeste 34 Sur 0 -- -- 65
2021-02-16 06:00:00 10.1 20 Sur 34 Sudoeste 0 -- -- 64
2021-02-16 05:00:00 9.3 13 Sur 23 Sudoeste 0 -- -- 68
2021-02-16 04:00:00 8.7 5 Sur 15 Sur 0 -- -- 69
2021-02-16 03:00:00 10 10 Sur 23 Sur 0 -- -- 64
2021-02-16 02:00:00 10.3 17 Sur 26 Sur 0 -- -- 65
2021-02-16 01:00:00 6.8 0 Calma 6 Oeste 0 -- -- 75
2021-02-16 00:00:00 8 3 Sudoeste 6 Sudoeste 0 -- -- 68
2021-02-15 23:00:00 8.8 5 Este 9 Sudeste 0 -- -- 64
2021-02-15 22:00:00 10.3 4 Noroeste 12 Sur 0 -- -- 59
2021-02-15 21:00:00 11.6 10 Sur 18 Sur 0 -- -- 55
2021-02-15 20:00:00 12 10 Sur 16 Sur 0 -- -- 57
2021-02-15 19:00:00 12.6 4 Nordeste 21 Sur 0 -- -- 63
2021-02-15 18:00:00 15.2 9 Sur 32 Sudoeste 0 -- -- 47
2021-02-15 17:00:00 16.6 15 Sur 28 Sudoeste 0 -- -- 45
2021-02-15 16:00:00 17.3 11 Sur 18 Sur 0 -- -- 47
2021-02-15 15:00:00 16.5 2 Nordeste 9 Este 0 -- -- 51
2021-02-15 14:00:00 15.4 3 Oeste 11 Norte 0 -- -- 54
2021-02-15 13:00:00 13.7 7 Norte 12 Norte 0 -- -- 62
2021-02-15 12:00:00 11.5 0 Calma 6 Noroeste 0 -- -- 78
2021-02-15 11:00:00 8.1 0 Calma 4 Noroeste 0 -- -- 87
2021-02-15 10:00:00 4.7 0 Calma 3 Nordeste 0 -- -- 94
2021-02-15 09:00:00 1.5 0 Calma 4 Este 0 -- -- 97
2021-02-15 08:00:00 1.1 3 Noroeste 4 Oeste 0 -- -- 96
2021-02-15 07:00:00 1.6 0 Calma 6 Este 0 -- -- 94
2021-02-15 06:00:00 2.3 0 Calma 5 Este 0 -- -- 92
2021-02-15 05:00:00 4.2 0 Calma 13 Este 0 -- -- 83
2021-02-15 04:00:00 5.2 8 Este 11 Este 0 -- -- 87
2021-02-15 03:00:00 5.4 4 Este 10 Este 0 -- -- 85
2021-02-15 02:00:00 5.5 7 Este 10 Este 0 -- -- 85
2021-02-15 01:00:00 5.2 6 Este 8 Este 0 -- -- 86
2021-02-15 00:00:00 5.4 0 Calma 3 Este 0 -- -- 87
2021-02-14 23:00:00 5.9 0 Calma 4 Oeste 0 -- -- 85
2021-02-14 22:00:00 7.8 0 Calma 8 Sur 0 -- -- 77
2021-02-14 21:00:00 9.1 5 Sur 15 Sur 0 -- -- 73
2021-02-14 20:00:00 11.2 9 Sur 15 Sur 0 -- -- 66
2021-02-14 19:00:00 12.6 7 Sudeste 13 Sudoeste 0 -- -- 70
2021-02-14 18:00:00 14.7 9 Sur 19 Sur 0 -- -- 57
2021-02-14 17:00:00 16.5 7 Sudoeste 21 Sur 0 -- -- 58
2021-02-14 16:00:00 16.1 9 Sudoeste 24 Sudoeste 0 -- -- 54
2021-02-14 15:00:00 16.3 13 Sudoeste 24 Sudoeste 0 -- -- 54
2021-02-14 14:00:00 15.4 8 Oeste 14 Oeste 0 -- -- 61
2021-02-14 13:00:00 14.2 9 Oeste 13 Oeste 0 -- -- 71
2021-02-14 12:00:00 13.5 3 Norte 5 Noroeste 0 -- -- 70
2021-02-14 11:00:00 11.1 0 Calma 12 Este 0 -- -- 77
2021-02-14 10:00:00 8.2 4 Este 13 Este 0 -- -- 84
2021-02-14 09:00:00 5 8 Sudeste 15 Sudeste 0 -- -- 92
2021-02-14 08:00:00 4.6 9 Sudeste 17 Sudeste 0 -- -- 93
2021-02-14 07:00:00 4.5 8 Sudeste 15 Sudeste 0 -- -- 96
2021-02-14 06:00:00 2.7 0 Calma 4 Sur 0 -- -- 94
2021-02-14 05:00:00 4.6 0 Calma 13 Sudeste 0 -- -- 92
2021-02-14 04:00:00 5.2 9 Sudeste 13 Sudeste 0 -- -- 93
2021-02-14 03:00:00 5.6 10 Sudeste 13 Sudeste 0 -- -- 92
2021-02-14 02:00:00 6 10 Sudeste 16 Sudeste 0 -- -- 92
2021-02-14 01:00:00 6.1 7 Sudeste 13 Sudeste 0 -- -- 93
2021-02-14 00:00:00 6.5 9 Sudeste 15 Sudeste 0 -- -- 93
2021-02-13 23:00:00 7.6 9 Sudeste 15 Sudeste 0 -- -- 91
2021-02-13 22:00:00 8.4 6 Sudeste 10 Sudeste 0 -- -- 90
2021-02-13 21:00:00 8.9 5 Sudeste 7 Sudeste 0 -- -- 88
2021-02-13 20:00:00 10.4 3 Este 6 Nordeste 0 -- -- 84
2021-02-13 19:00:00 12.1 5 Norte 8 Noroeste 0 -- -- 78
2021-02-13 18:00:00 12.5 2 Norte 10 Oeste 0 -- -- 73
2021-02-13 17:00:00 13.4 6 Oeste 16 Sudoeste 0 -- -- 67
2021-02-13 16:00:00 13 9 Noroeste 17 Oeste 0 -- -- 71
2021-02-13 15:00:00 12.5 9 Sudoeste 16 Oeste 0 -- -- 68
2021-02-13 14:00:00 11.4 7 Sudoeste 12 Sudoeste 0 -- -- 67
2021-02-13 13:00:00 9.8 6 Sudoeste 13 Sudoeste 0 -- -- 72
2021-02-13 08:00:00 -- -- -- -- -- -- -- -- --
2021-02-13 07:00:00 -- -- -- -- -- -- -- -- --
2021-02-13 06:00:00 -- -- -- -- -- -- -- -- --
2021-02-13 05:00:00 -- -- -- -- -- -- -- -- --
2021-02-13 04:00:00 4.5 6 Sudoeste 11 Sur 0 -- -- 95
2021-02-13 03:00:00 5.5 6 Sur 13 Sur 0 -- -- 94
2021-02-13 02:00:00 6.1 8 Sudeste 11 Sudeste 0 -- -- 93
2021-02-13 01:00:00 6.5 5 Sur 10 Sudoeste 0 -- -- 93
2021-02-13 00:00:00 6.7 6 Sudoeste 11 Sudoeste 0 -- -- 92
2021-02-12 23:00:00 6.8 6 Sudoeste 8 Sudoeste 0 -- -- 90
2021-02-12 22:00:00 7.6 6 Sudoeste 9 Sudoeste 0 -- -- 86
2021-02-12 21:00:00 7.7 6 Sudoeste 9 Sudoeste 0 -- -- 84
2021-02-12 20:00:00 7.8 3 Sudoeste -- -- 0 -- -- 81
2021-02-12 19:00:00 9.5 0 Calma 20 Oeste 0 -- -- 77
2021-02-12 18:00:00 11.7 11 Oeste 22 Oeste 0 -- -- 67
2021-02-12 17:00:00 12 15 Oeste 26 Oeste 0 -- -- 64
2021-02-12 16:00:00 12.2 16 Oeste 30 Oeste 0 -- -- 65
2021-02-12 15:00:00 11.2 17 Noroeste 30 Oeste 0 -- -- 68
2021-02-12 14:00:00 11 19 Noroeste 31 Oeste 0 -- -- 72
2021-02-12 13:00:00 9.8 18 Oeste 31 Oeste 0 -- -- 76
2021-02-12 12:00:00 9 15 Oeste 28 Oeste 0 -- -- 83
2021-02-12 11:00:00 8.7 21 Oeste 36 Oeste 0 -- -- 86
2021-02-12 10:00:00 7.6 13 Oeste 24 Oeste 0 -- -- 94
2021-02-12 09:00:00 6.7 10 Oeste 22 Oeste 0 -- -- 97
2021-02-12 08:00:00 7.2 13 Sudoeste 27 Oeste 0 -- -- 95
2021-02-12 07:00:00 7.6 15 Sudoeste 26 Sudoeste 0 -- -- 94
2021-02-12 06:00:00 7.7 15 Oeste 34 Oeste 0 -- -- 95
2021-02-12 05:00:00 8.3 15 Oeste 52 Oeste 0 -- -- 94
2021-02-12 04:00:00 9 19 Oeste 51 Oeste 1.6 -- -- 96
2021-02-12 03:00:00 9.9 16 Sudoeste 31 Sudoeste 0 -- -- 96
2021-02-12 02:00:00 9.4 15 Sudoeste 26 Sudoeste 1.4 -- -- 98
2021-02-12 01:00:00 9.5 16 Sudoeste 42 Sudoeste 5.2 -- -- 95
2021-02-12 00:00:00 11.1 18 Sur 31 Sur 0 -- -- 86
2021-02-11 23:00:00 10.7 14 Sur 24 Sur 0 -- -- 89
2021-02-11 22:00:00 11 10 Sudoeste 22 Sur 0 -- -- 90
2021-02-11 21:00:00 11.1 7 Sudoeste 15 Sur 0 -- -- 87
2021-02-11 20:00:00 11 13 Sudoeste 23 Sudoeste 0 -- -- 85
2021-02-11 19:00:00 11.6 13 Sur 30 Sudoeste 0 -- -- 83
2021-02-11 18:00:00 12.8 16 Sudoeste 35 Sur 0.2 -- -- 82
2021-02-11 17:00:00 12.9 13 Sudoeste 35 Sudoeste 0 -- -- 89
2021-02-11 16:00:00 12.7 21 Sudoeste 31 Sudoeste 0 -- -- 87
2021-02-11 15:00:00 12.3 22 Sudoeste 38 Sudoeste 0 -- -- 84
2021-02-11 14:00:00 13 21 Sudoeste 38 Sudoeste 0 -- -- 80
2021-02-11 13:00:00 12 12 Sur 26 Sudoeste 0.2 -- -- 88
2021-02-11 12:00:00 11.2 19 Sudoeste 32 Sur 0 -- -- 92
2021-02-11 11:00:00 12.1 19 Sudoeste 28 Sudoeste 0 -- -- 87
2021-02-11 10:00:00 11.4 10 Sur 23 Sudoeste 0 -- -- 88
2021-02-11 09:00:00 10.4 10 Sudoeste 21 Sudoeste 0 -- -- 91
2021-02-11 08:00:00 10.6 10 Sudoeste 21 Sudoeste 0 -- -- 92
2021-02-11 07:00:00 10.5 13 Sudoeste 20 Sudoeste 0 -- -- 92
2021-02-11 06:00:00 10.5 12 Sudoeste 24 Sudoeste 0 -- -- 93
2021-02-11 05:00:00 10.3 12 Sudoeste 26 Sur 0 -- -- 94
2021-02-11 04:00:00 10.3 15 Sudoeste 27 Sudoeste 0 -- -- 93
2021-02-11 03:00:00 10.3 15 Sudoeste 28 Sur 0 -- -- 92
2021-02-11 02:00:00 9.9 16 Sudoeste 30 Sudoeste 0 -- -- 94
2021-02-11 01:00:00 10 20 Sudoeste 32 Sur 0 -- -- 91
2021-02-11 00:00:00 9.8 18 Sudoeste 28 Sudoeste 0 -- -- 88
2021-02-10 23:00:00 9.5 9 Sudoeste 21 Sudoeste 0 -- -- 78
2021-02-10 22:00:00 9.2 6 Sudoeste 17 Sudoeste 0 -- -- 75
2021-02-10 21:00:00 9.1 10 Sudoeste 15 Sudoeste 0 -- -- 77
2021-02-10 20:00:00 9.2 6 Sudoeste 11 Sudoeste 0 -- -- 74
2021-02-10 19:00:00 9.3 4 Sudoeste 10 Sudoeste 0 -- -- 69
2021-02-10 18:00:00 10.3 5 Oeste 17 Oeste 0 -- -- 63
2021-02-10 17:00:00 11 11 Oeste 18 Sudoeste 0 -- -- 56
2021-02-10 16:00:00 11.6 16 Sudoeste 31 Oeste 0 -- -- 54
2021-02-10 15:00:00 11 16 Oeste 31 Sudoeste 0 -- -- 60
2021-02-10 14:00:00 10 18 Sudoeste 32 Sudoeste 0 -- -- 69
2021-02-10 13:00:00 8.9 15 Sudoeste 25 Sudoeste 0 -- -- 73
2021-02-10 12:00:00 7.9 15 Sudoeste 29 Oeste 0 -- -- 77
2021-02-10 11:00:00 7.1 13 Oeste 28 Oeste 0 -- -- 86
2021-02-10 10:00:00 6.2 13 Oeste 26 Oeste 0 -- -- 91
2021-02-10 09:00:00 5.2 12 Sudoeste 23 Sudoeste 0 -- -- 93
2021-02-10 08:00:00 5.4 14 Sudoeste 24 Oeste 0 -- -- 93
2021-02-10 07:00:00 5.1 14 Sudoeste 42 Oeste 0 -- -- 94
2021-02-10 06:00:00 5.7 21 Oeste 40 Oeste 0 -- -- 89
2021-02-10 05:00:00 5.8 22 Oeste 49 Oeste 0 -- -- 93
2021-02-10 04:00:00 5.9 23 Sudoeste 48 Sudoeste 0.2 -- -- 92
2021-02-10 03:00:00 6.2 28 Sudoeste 53 Oeste 1.2 -- -- 96
2021-02-10 02:00:00 6.2 27 Sudoeste 51 Sudoeste 1.6 -- -- 95
2021-02-10 01:00:00 6 24 Sudoeste 44 Sudoeste 0.4 -- -- 94
2021-02-10 00:00:00 5.5 23 Sudoeste 33 Sur 0.2 -- -- 93
2021-02-09 23:00:00 5.2 22 Sudoeste 54 Sudoeste 0 -- -- 93
2021-02-09 22:00:00 5.3 26 Oeste 46 Oeste 1 -- -- 94
2021-02-09 21:00:00 5.9 17 Sudoeste 32 Sudoeste 0 -- -- 92
2021-02-09 20:00:00 5.8 18 Sudoeste 40 Sudoeste 0 -- -- 91
2021-02-09 19:00:00 5.4 17 Sudoeste 39 Oeste 0 -- -- 92
2021-02-09 18:00:00 5.2 28 Sudoeste 49 Sudoeste 2.4 -- -- 92
2021-02-09 17:00:00 6.1 27 Oeste 48 Oeste 2 -- -- 89
2021-02-09 16:00:00 7.8 24 Sudoeste 37 Sudoeste 0 -- -- 84
2021-02-09 15:00:00 6.7 20 Sudoeste 36 Sudoeste 0 -- -- 87
2021-02-09 14:00:00 4.6 12 Sudoeste 26 Sudoeste 0.6 -- -- 98
2021-02-09 13:00:00 3.5 17 Oeste 43 Oeste 1.4 -- -- 97
2021-02-09 12:00:00 3.6 30 Oeste 59 Oeste 6 -- -- 93
2021-02-09 11:00:00 7.5 22 Sudoeste 48 Sur 1.8 -- -- 95
2021-02-09 10:00:00 7.3 26 Sudoeste 48 Sudoeste 1.4 -- -- 94
2021-02-09 09:00:00 6.9 28 Sudoeste 53 Sudoeste 2.2 -- -- 93
2021-02-09 08:00:00 7.1 30 Sudoeste 50 Sur 1.6 -- -- 94
2021-02-09 07:00:00 7.1 27 Sur 42 Sudoeste 1.2 -- -- 93
2021-02-09 06:00:00 7.1 29 Sudoeste 49 Sudoeste 0.8 -- -- 91
2021-02-09 05:00:00 6.7 25 Sudoeste 49 Sudoeste 0.2 -- -- 93
2021-02-09 04:00:00 6.8 16 Sur 34 Sur 0.2 -- -- 90
2021-02-09 03:00:00 7 15 Sudoeste 36 Sur 0 -- -- 85
2021-02-09 02:00:00 6.3 19 Sudoeste 32 Sudoeste 0 -- -- 81
2021-02-09 01:00:00 5.8 16 Sur 28 Sudoeste 0 -- -- 82
2021-02-09 00:00:00 5.6 15 Sudoeste 27 Sudoeste 0 -- -- 86
2021-02-08 23:00:00 6.1 14 Sudoeste 35 Sudoeste 0 -- -- 86
2021-02-08 22:00:00 5.9 15 Sudoeste 30 Sudoeste 0 -- -- 91
2021-02-08 21:00:00 6.2 20 Sudoeste 39 Oeste 0 -- -- 89
2021-02-08 20:00:00 6.6 19 Sudoeste 35 Sudoeste 0 -- -- 90
2021-02-08 19:00:00 6.8 20 Sudoeste 37 Sudoeste 0 -- -- 90
2021-02-08 18:00:00 7 25 Oeste 44 Oeste 0.2 -- -- 89
2021-02-08 17:00:00 7.7 24 Oeste 49 Sudoeste 0 -- -- 86
2021-02-08 16:00:00 7.8 30 Sudoeste 54 Sudoeste 0 -- -- 82
2021-02-08 15:00:00 7.4 30 Oeste 52 Oeste 0.2 -- -- 84
2021-02-08 14:00:00 7.6 26 Sudoeste 42 Sudoeste 0 -- -- 85
2021-02-08 13:00:00 6.8 24 Oeste 49 Oeste 0 -- -- 88
2021-02-08 12:00:00 6.3 25 Sudoeste 40 Sudoeste 0 -- -- 88
2021-02-08 11:00:00 5.2 19 Sudoeste 38 Sudoeste 1 -- -- 94
2021-02-08 10:00:00 3.8 22 Oeste 36 Oeste 2.4 -- -- 96
2021-02-08 09:00:00 4.9 16 Sudoeste 30 Sudoeste 1.4 -- -- 97
2021-02-08 08:00:00 5.1 8 Oeste 26 Sudoeste 1 -- -- 97
2021-02-08 07:00:00 5 14 Sudoeste 26 Oeste 0 -- -- 95
2021-02-08 06:00:00 4.7 14 Oeste 31 Sudoeste 0 -- -- 95
2021-02-08 05:00:00 5.8 15 Oeste 39 Sudoeste 1 -- -- 96
2021-02-08 04:00:00 6.1 14 Sudoeste 37 Sudoeste 0 -- -- 95
2021-02-08 03:00:00 6.9 19 Sudoeste 34 Sudoeste 2.8 -- -- 96
2021-02-08 02:00:00 6.7 15 Sudoeste 25 Sudoeste 0.6 -- -- 96
2021-02-08 01:00:00 6.1 9 Sudoeste 32 Sudoeste 2.8 -- -- 97
2021-02-08 00:00:00 6.8 15 Sudoeste 34 Sudoeste 2 -- -- 93
2021-02-07 23:00:00 7 19 Sur 33 Sur 0 -- -- 87
2021-02-07 22:00:00 6.5 24 Sur 46 Sur 0 -- -- 89
2021-02-07 21:00:00 6.1 21 Sur 39 Sudoeste 0 -- -- 91
2021-02-07 20:00:00 5.5 22 Sudoeste 33 Sur 0 -- -- 92
2021-02-07 19:00:00 4.8 14 Sudoeste 23 Sudoeste 0 -- -- 94
2021-02-07 18:00:00 4.5 12 Sudoeste 22 Sudoeste 0.2 -- -- 92
2021-02-07 17:00:00 4.4 12 Sudoeste 19 Oeste 0.2 -- -- 94
2021-02-07 16:00:00 4.2 14 Oeste 26 Oeste 0.4 -- -- 90
2021-02-07 15:00:00 4.8 14 Sudoeste 27 Oeste 0.2 -- -- 85
2021-02-07 14:00:00 5.2 19 Oeste 30 Sudoeste 0 -- -- 77
2021-02-07 13:00:00 5.7 15 Oeste 23 Oeste 0 -- -- 82
2021-02-07 12:00:00 5.2 10 Oeste 19 Oeste 0 -- -- 87
2021-02-07 11:00:00 3.9 9 Oeste 15 Oeste 0 -- -- 94
2021-02-07 10:00:00 2.5 6 Sudoeste 11 Noroeste 0 -- -- 99
2021-02-07 09:00:00 1.8 4 Oeste 10 Oeste 0 -- -- 100
2021-02-07 08:00:00 1.7 5 Sudoeste 13 Sudoeste 0 -- -- 100
2021-02-07 07:00:00 1.5 4 Sudoeste 8 Sudoeste 0 -- -- 100
2021-02-07 06:00:00 2.8 0 Calma 6 Oeste 0 -- -- 99
2021-02-07 05:00:00 3.6 3 Oeste 4 Noroeste 0 -- -- 99
2021-02-07 04:00:00 4.4 0 Calma 3 Norte 0 -- -- 98
2021-02-07 03:00:00 5.1 3 Noroeste 8 Noroeste 0 -- -- 99
2021-02-07 02:00:00 4.9 2 Noroeste 6 Noroeste 0 -- -- 99
2021-02-07 01:00:00 4.7 3 Noroeste 6 Nordeste 0 -- -- 98
2021-02-07 00:00:00 4.5 3 Este 6 Norte 0 -- -- 98
2021-02-06 23:00:00 5.2 5 Norte 10 Nordeste 0.2 -- -- 97
2021-02-06 22:00:00 5.5 6 Nordeste 20 Este 0 -- -- 97
2021-02-06 21:00:00 5.7 16 Nordeste 23 Nordeste 0 -- -- 95
2021-02-06 20:00:00 6.4 14 Nordeste 23 Nordeste 0 -- -- 91
2021-02-06 19:00:00 6.4 20 Nordeste 30 Nordeste 0 -- -- 91
2021-02-06 18:00:00 6.9 20 Nordeste 33 Nordeste 0 -- -- 89
2021-02-06 17:00:00 7.2 24 Nordeste 35 Nordeste 0 -- -- 90
2021-02-06 16:00:00 7.8 21 Nordeste 31 Norte 0 -- -- 92
2021-02-06 15:00:00 8.6 13 Norte 22 Norte 0.6 -- -- 90
2021-02-06 14:00:00 7.5 17 Norte 24 Norte 0.4 -- -- 93
2021-02-06 13:00:00 7.8 6 Norte 9 Norte 0 -- -- 87
2021-02-06 12:00:00 7.1 5 Norte 10 Norte 0 -- -- 93
2021-02-06 11:00:00 6.1 6 Norte 8 Norte 0.2 -- -- 100
2021-02-06 10:00:00 5.9 5 Norte 7 Noroeste 0.4 -- -- 100
2021-02-06 09:00:00 5.8 2 Norte 3 Norte 0.8 -- -- 100
2021-02-06 08:00:00 5.8 0 Calma 5 Noroeste 1.2 -- -- 100
2021-02-06 07:00:00 5.8 3 Noroeste 5 Noroeste 0.4 -- -- 100
2021-02-06 06:00:00 5.9 3 Oeste 9 Sudoeste 0 -- -- 100
2021-02-06 05:00:00 5.8 4 Sudoeste 8 Sudoeste 0.2 -- -- 100
2021-02-06 04:00:00 5.7 2 Sudoeste 10 Sudoeste 0 -- -- 100
2021-02-06 03:00:00 6 5 Sudoeste 10 Sudoeste 0.8 -- -- 100
2021-02-06 02:00:00 6.3 7 Sudoeste 13 Sudoeste 1 -- -- 100
2021-02-06 01:00:00 6.3 8 Sudoeste 13 Sudoeste 0.4 -- -- 100
2021-02-06 00:00:00 6.6 3 Oeste 11 Oeste 0.4 -- -- 100
2021-02-05 23:00:00 6.3 3 Oeste 8 Oeste 0 -- -- 99
2021-02-05 22:00:00 6.3 5 Oeste 14 Sudoeste 1.4 -- -- 99
2021-02-05 21:00:00 6.9 8 Sudoeste 13 Sudoeste 1.4 -- -- 99
2021-02-05 20:00:00 7.3 4 Oeste 9 Noroeste 1 -- -- 99
2021-02-05 19:00:00 7.6 5 Noroeste 10 Noroeste 0.2 -- -- 98
2021-02-05 18:00:00 8 5 Noroeste 10 Oeste 1 -- -- 98
2021-02-05 17:00:00 8.4 4 Oeste 9 Oeste 2.2 -- -- 98
2021-02-05 16:00:00 8.9 3 Oeste 8 Noroeste 0.8 -- -- 98
2021-02-05 15:00:00 9.1 4 Noroeste 8 Oeste 0.2 -- -- 98
2021-02-05 14:00:00 9.1 3 Nordeste 9 Norte 0 -- -- 98
2021-02-05 13:00:00 8.8 4 Oeste 13 Oeste 0 -- -- 96
2021-02-05 12:00:00 9.2 4 Sudeste 13 Este 0 -- -- 96
2021-02-05 11:00:00 7.6 4 Este 12 Oeste 0 -- -- 100
2021-02-05 10:00:00 6.4 8 Noroeste 12 Noroeste 0.2 -- -- 100
2021-02-05 09:00:00 5.7 5 Nordeste 14 Nordeste 0.2 -- -- 99
2021-02-05 08:00:00 5.4 9 Nordeste 20 Nordeste 1.4 -- -- 99
2021-02-05 07:00:00 5.5 13 Nordeste 20 Nordeste 0.6 -- -- 98
2021-02-05 06:00:00 5.5 13 Nordeste 27 Este 0 -- -- 98
2021-02-05 05:00:00 5.5 14 Este 23 Este 0.8 -- -- 99
2021-02-05 04:00:00 5.6 14 Este 30 Este 1.2 -- -- 99
2021-02-05 03:00:00 5.6 14 Este 22 Este 0.8 -- -- 99
2021-02-05 02:00:00 5.5 9 Nordeste 12 Nordeste 0.2 -- -- 99
2021-02-05 01:00:00 5.5 6 Norte 14 Norte 2.4 -- -- 99
2021-02-05 00:00:00 5.5 2 Norte 13 Este 0 -- -- 99
2021-02-04 23:00:00 5.3 5 Nordeste 8 Este 0 -- -- 97
2021-02-04 22:00:00 5.6 3 Sudeste 7 Este 0.2 -- -- 97
2021-02-04 21:00:00 5.7 3 Sudeste 6 Nordeste 0.2 -- -- 97
2021-02-04 20:00:00 5.6 2 Nordeste 18 Este 0 -- -- 95
2021-02-04 19:00:00 5.9 14 Este 22 Este 0 -- -- 95
2021-02-04 18:00:00 5.8 13 Este 27 Este 0.2 -- -- 96
2021-02-04 17:00:00 5.7 19 Este 28 Este 1 -- -- 97
2021-02-04 16:00:00 5.6 12 Este 19 Este 1 -- -- 96
2021-02-04 15:00:00 5.6 12 Nordeste 16 Nordeste 1 -- -- 96
2021-02-04 14:00:00 5 6 Nordeste 8 Nordeste 2.4 -- -- 96
2021-02-04 13:00:00 5.3 3 Noroeste 10 Norte 3 -- -- 96
2021-02-04 12:00:00 5.6 5 Noroeste 11 Noroeste 1.6 -- -- 96
2021-02-04 11:00:00 5.8 9 Noroeste 17 Noroeste 3.4 -- -- 97
2021-02-04 10:00:00 6.3 3 Sudoeste 14 Noroeste 4.2 -- -- 98
2021-02-04 09:00:00 7.1 5 Noroeste 7 Noroeste 1.4 -- -- 98
2021-02-04 08:00:00 7.2 3 Sur 5 Sudeste 0.4 -- -- 97
2021-02-04 07:00:00 7.3 3 Sur 14 Sur 0.2 -- -- 97
2021-02-04 06:00:00 7.6 10 Sur 15 Sur 0.4 -- -- 97
2021-02-04 05:00:00 7.6 8 Sudoeste 16 Sudoeste 0 -- -- 97
2021-02-04 04:00:00 7.7 7 Sudoeste 17 Sudoeste 0 -- -- 95
2021-02-04 03:00:00 7.9 9 Sudoeste 17 Sudoeste 0 -- -- 93
2021-02-04 02:00:00 8.1 11 Sudoeste 18 Sudoeste 0 -- -- 92
2021-02-04 01:00:00 7.8 8 Sur 12 Sur 0 -- -- 94
2021-02-04 00:00:00 7.8 5 Sur 11 Sur 0 -- -- 95
2021-02-03 23:00:00 8 10 Sur 21 Sur 0.2 -- -- 94
2021-02-03 22:00:00 8.1 10 Sudoeste 22 Sudoeste 0 -- -- 92
2021-02-03 21:00:00 8.8 15 Sudoeste 25 Sudoeste 0 -- -- 92
2021-02-03 20:00:00 8.8 12 Sudoeste 21 Sudoeste 0 -- -- 96
2021-02-03 19:00:00 9.2 15 Sudoeste 26 Sudoeste 0.8 -- -- 95
2021-02-03 18:00:00 9.6 14 Sudoeste 32 Sudoeste 0.4 -- -- 94
2021-02-03 17:00:00 10.2 20 Sudoeste 34 Sudoeste 0.2 -- -- 93
2021-02-03 16:00:00 9.9 14 Sudoeste 27 Sur 0.6 -- -- 97
2021-02-03 15:00:00 9.3 12 Sudoeste 31 Sudoeste 1 -- -- 95
2021-02-03 14:00:00 9.1 14 Sudoeste 34 Sudoeste 2.2 -- -- 95
2021-02-03 13:00:00 9.7 18 Sudoeste 35 Sur 0.6 -- -- 93
2021-02-03 12:00:00 10 19 Sudoeste 41 Sur 0.2 -- -- 91
2021-02-03 11:00:00 10.5 19 Sudoeste 36 Sudoeste 0.6 -- -- 85
2021-02-03 10:00:00 9.3 18 Sudoeste 37 Sudoeste 0.4 -- -- 93
2021-02-03 09:00:00 10.1 19 Sudoeste 35 Sur 0 -- -- 84
2021-02-03 08:00:00 10.1 22 Sudoeste 42 Sudoeste 0 -- -- 82
2021-02-03 07:00:00 10.1 24 Sudoeste 48 Sur 0 -- -- 82
2021-02-03 06:00:00 10.2 21 Sudoeste 46 Sur 0 -- -- 80
2021-02-03 05:00:00 10.3 26 Sudoeste 49 Sur 0 -- -- 80
2021-02-03 04:00:00 10.3 25 Sudoeste 38 Sur 0 -- -- 80
2021-02-03 03:00:00 10.1 22 Sudoeste 41 Sur 0 -- -- 82
2021-02-03 02:00:00 9.8 24 Sur 41 Sur 0 -- -- 82
2021-02-03 01:00:00 9.9 24 Sudoeste 42 Sur 0 -- -- 83
2021-02-03 00:00:00 9.1 22 Sur 39 Sudoeste 0 -- -- 85
2021-02-02 23:00:00 9.3 19 Sur 48 Sur 0 -- -- 84
2021-02-02 22:00:00 9.7 21 Sudoeste 45 Sudoeste 0 -- -- 82
2021-02-02 21:00:00 9.7 23 Sudoeste 39 Sur 0 -- -- 82
2021-02-02 20:00:00 9.8 22 Sudoeste 38 Sur 0 -- -- 82
2021-02-02 19:00:00 9.9 24 Sudoeste 37 Sudoeste 0 -- -- 83
2021-02-02 18:00:00 10.3 22 Sudoeste 43 Sudoeste 0 -- -- 82
2021-02-02 17:00:00 10.9 25 Sudoeste 42 Sudoeste 0 -- -- 80
2021-02-02 16:00:00 10.9 22 Sur 40 Sudoeste 0 -- -- 77
2021-02-02 15:00:00 11.4 23 Sudoeste 42 Sudoeste 0 -- -- 78
2021-02-02 14:00:00 11.7 21 Sudoeste 41 Sudoeste 0 -- -- 77
2021-02-02 13:00:00 10.5 24 Sudoeste 37 Sudoeste 0 -- -- 78
2021-02-02 12:00:00 10.1 24 Sudoeste 43 Sudoeste 0 -- -- 81
2021-02-02 11:00:00 9.7 18 Sudoeste 35 Sudoeste 0 -- -- 89
2021-02-02 10:00:00 8.6 17 Sudoeste 27 Sudoeste 0 -- -- 96
2021-02-02 09:00:00 9.1 14 Sudoeste 23 Sudoeste 0 -- -- 95
2021-02-02 08:00:00 9.4 13 Sudoeste 27 Sudoeste 0 -- -- 94
2021-02-02 07:00:00 9.7 13 Sudoeste 26 Sudoeste 0 -- -- 93
2021-02-02 06:00:00 9.7 12 Sudoeste 19 Sudoeste 0 -- -- 95
2021-02-02 05:00:00 9.4 8 Sudoeste 18 Sudoeste 0.2 -- -- 97
2021-02-02 04:00:00 9.7 13 Sudoeste 28 Sudoeste 0 -- -- 97
2021-02-02 03:00:00 10 17 Sudoeste 29 Sudoeste 0 -- -- 95
2021-02-02 02:00:00 9.9 15 Sudoeste 32 Sudoeste 0 -- -- 94
2021-02-02 01:00:00 10 17 Sudoeste 30 Sudoeste 0 -- -- 92
2021-02-02 00:00:00 10.1 17 Sudoeste 30 Sudoeste 0 -- -- 91
2021-02-01 23:00:00 10.2 12 Sudoeste 23 Sur 0 -- -- 90
2021-02-01 22:00:00 9.9 11 Sur 15 Sudoeste 0 -- -- 92
2021-02-01 21:00:00 9.9 8 Sudoeste 14 Sudoeste 0 -- -- 89
2021-02-01 20:00:00 10.6 8 Sudoeste 13 Sudoeste 0 -- -- 82
2021-02-01 19:00:00 10.9 6 Sudoeste 14 Sudoeste 0 -- -- 80
2021-02-01 18:00:00 11.4 8 Oeste 23 Oeste 0 -- -- 75
2021-02-01 17:00:00 12.1 16 Oeste 39 Sudoeste 0 -- -- 72
2021-02-01 16:00:00 11.8 17 Sudoeste 37 Sudoeste 0 -- -- 75
2021-02-01 15:00:00 11.2 21 Oeste 38 Sudoeste 0 -- -- 77
2021-02-01 14:00:00 10.8 18 Oeste 38 Oeste 0 -- -- 81
2021-02-01 13:00:00 10.4 20 Oeste 37 Sudoeste 0 -- -- 84
2021-02-01 12:00:00 9.7 21 Oeste 36 Sudoeste 0 -- -- 87
2021-02-01 11:00:00 9.2 20 Sudoeste 32 Sudoeste 0 -- -- 90
2021-02-01 10:00:00 8.5 16 Sudoeste 27 Sudoeste 0 -- -- 91
2021-02-01 09:00:00 7.9 14 Sudoeste 28 Sudoeste 0 -- -- 93
2021-02-01 08:00:00 7.7 20 Sudoeste 31 Sudoeste 0 -- -- 92
2021-02-01 07:00:00 7.5 15 Sudoeste 22 Sudoeste 0 -- -- 93
2021-02-01 06:00:00 6.9 14 Sudoeste 26 Sudoeste 0 -- -- 92
2021-02-01 05:00:00 6.9 15 Sudoeste 31 Sudoeste 0 -- -- 91
2021-02-01 04:00:00 7.1 15 Sudoeste 22 Sudoeste 0 -- -- 92
2021-02-01 03:00:00 7.8 16 Oeste 31 Oeste 0 -- -- 91
2021-02-01 02:00:00 8.4 18 Oeste 31 Oeste 0 -- -- 91
2021-02-01 01:00:00 8.9 15 Oeste 49 Sudoeste 0 -- -- 91
2021-02-01 00:00:00 9.2 26 Oeste 43 Oeste 0 -- -- 90
2021-01-31 23:00:00 10.2 24 Oeste 46 Oeste 0 -- -- 90
2021-01-31 22:00:00 9.5 19 Sudoeste 37 Oeste 0 -- -- 93
2021-01-31 21:00:00 9.6 8 Oeste 28 Oeste 0 -- -- 91
2021-01-31 20:00:00 10.5 15 Sudoeste 36 Oeste 0 -- -- 90
2021-01-31 19:00:00 11.9 14 Oeste 34 Oeste 0 -- -- 87
2021-01-31 18:00:00 13.4 23 Oeste 43 Sudoeste 0 -- -- 85
2021-01-31 17:00:00 13.5 25 Oeste 44 Sudoeste 0 -- -- 87
2021-01-31 16:00:00 12.5 18 Sudoeste 33 Oeste 0 -- -- 92
2021-01-31 15:00:00 12.3 23 Sudoeste 37 Sudoeste 0 -- -- 94
2021-01-31 14:00:00 11.8 26 Oeste 37 Sudoeste 0.2 -- -- 97
2021-01-31 13:00:00 11.1 23 Oeste 39 Oeste 0.2 -- -- 99
2021-01-31 12:00:00 9.9 17 Sudoeste 32 Sudoeste 0.4 -- -- 99
2021-01-31 11:00:00 8.5 17 Sudoeste 30 Sudoeste 0.4 -- -- 99
2021-01-31 10:00:00 7.7 13 Sudoeste 32 Sudoeste 0.4 -- -- 99
2021-01-31 09:00:00 7.4 16 Sudoeste 30 Sudoeste 0 -- -- 98
2021-01-31 08:00:00 7.1 17 Sudoeste 27 Sudoeste 0 -- -- 97
2021-01-31 07:00:00 6.9 14 Sudoeste 24 Sudoeste 0 -- -- 96
2021-01-31 06:00:00 6.6 15 Sudoeste 24 Sudoeste 0 -- -- 93
2021-01-31 05:00:00 6.6 13 Sudoeste 24 Sudoeste 0 -- -- 88
2021-01-31 04:00:00 6.4 15 Oeste 29 Oeste 0 -- -- 87
2021-01-31 03:00:00 6.5 10 Sudoeste 21 Sudoeste 0 -- -- 88
2021-01-31 02:00:00 6.1 8 Sudoeste 27 Oeste 0 -- -- 87
2021-01-31 01:00:00 6.1 11 Oeste 35 Oeste 0 -- -- 89
2021-01-31 00:00:00 6.5 21 Oeste 37 Oeste 0 -- -- 89
2021-01-30 23:00:00 6.2 19 Oeste 36 Oeste 0.2 -- -- 92
2021-01-30 22:00:00 6.4 17 Oeste 36 Oeste 0 -- -- 90
2021-01-30 21:00:00 6.1 18 Oeste 44 Sudoeste 0.4 -- -- 93
2021-01-30 20:00:00 6.7 23 Oeste 47 Sudoeste 0 -- -- 84
2021-01-30 19:00:00 6.8 27 Oeste 46 Oeste 0 -- -- 88
2021-01-30 18:00:00 7.6 24 Sudoeste 50 Oeste 0 -- -- 81
2021-01-30 17:00:00 7.9 30 Oeste 53 Sudoeste 0 -- -- 78
2021-01-30 16:00:00 7.9 28 Oeste 56 Oeste 0 -- -- 80
2021-01-30 15:00:00 8.1 28 Oeste 52 Oeste 0 -- -- 80
2021-01-30 14:00:00 8.9 31 Oeste 54 Sudoeste 0 -- -- 68
2021-01-30 13:00:00 8.8 27 Oeste 49 Oeste 0 -- -- 74
2021-01-30 12:00:00 8 28 Oeste 54 Sudoeste 0 -- -- 77
2021-01-30 11:00:00 7.5 26 Oeste 52 Oeste 0 -- -- 86
2021-01-30 10:00:00 7.5 28 Sudoeste 45 Sudoeste 0 -- -- 88
2021-01-30 09:00:00 6.8 19 Sudoeste 32 Oeste 0 -- -- 93
2021-01-30 08:00:00 7 24 Oeste 41 Sudoeste 0 -- -- 89
2021-01-30 07:00:00 8 25 Sudoeste 44 Oeste 0.2 -- -- 91
2021-01-30 06:00:00 8.3 24 Sudoeste 57 Oeste 1 -- -- 93
2021-01-30 05:00:00 8.1 13 Oeste 48 Sudoeste 0.6 -- -- 92
2021-01-30 04:00:00 8.2 23 Oeste 47 Oeste 3.6 -- -- 93
2021-01-30 03:00:00 9.1 22 Sudoeste 48 Sudoeste 0.8 -- -- 95
2021-01-30 02:00:00 9.9 25 Sur 49 Sur 0 -- -- 87
2021-01-30 01:00:00 9.9 27 Sudoeste 45 Sudoeste 0 -- -- 88
2021-01-30 00:00:00 10 23 Sudoeste 43 Sudoeste 0 -- -- 90
2021-01-29 23:00:00 10.1 22 Sudoeste 39 Sudoeste 0 -- -- 90
2021-01-29 22:00:00 10 20 Sudoeste 31 Sudoeste 0 -- -- 91
2021-01-29 21:00:00 9.6 9 Sudoeste 22 Oeste 0 -- -- 92
2021-01-29 20:00:00 9.9 8 Oeste 20 Sudoeste 0 -- -- 90
2021-01-29 19:00:00 12.2 13 Sudoeste 20 Sudoeste 0 -- -- 82
2021-01-29 18:00:00 14.6 15 Sudoeste 27 Oeste 0 -- -- 72
2021-01-29 17:00:00 15.3 15 Sudoeste 26 Sudoeste 0 -- -- 71
2021-01-29 16:00:00 15.8 16 Sudoeste 24 Sudoeste 0 -- -- 69
2021-01-29 15:00:00 15.1 12 Sudoeste 20 Sudoeste 0 -- -- 75
2021-01-29 14:00:00 13.7 6 Sudoeste 13 Sudoeste 0 -- -- 83
2021-01-29 13:00:00 12.2 6 Oeste 16 Oeste 0 -- -- 88
2021-01-29 12:00:00 10.1 9 Sudoeste 13 Oeste 0 -- -- 95
2021-01-29 11:00:00 9.6 7 Sudoeste 15 Sudoeste 0 -- -- 98
2021-01-29 10:00:00 9.5 6 Sur 15 Sur 0 -- -- 99
2021-01-29 09:00:00 9.2 7 Sur 10 Sur 0 -- -- 100
2021-01-29 08:00:00 9.2 6 Sudoeste 9 Sudoeste 0 -- -- 100
2021-01-29 07:00:00 9.2 4 Sur 6 Sudoeste 0 -- -- 100
2021-01-29 06:00:00 9.2 3 Oeste 13 Sudoeste 0 -- -- 99
2021-01-29 05:00:00 9.5 8 Sur 17 Sudoeste 0 -- -- 99
2021-01-29 04:00:00 9.7 10 Oeste 23 Sudoeste 0 -- -- 99
2021-01-29 03:00:00 9.4 13 Oeste 24 Oeste 0 -- -- 99
2021-01-29 02:00:00 8.4 6 Oeste 12 Oeste 0 -- -- 98
2021-01-29 01:00:00 8.2 4 Oeste 7 Sudeste 0 -- -- 95
2021-01-29 00:00:00 8.5 6 Noroeste 15 Noroeste 0 -- -- 93
2021-01-28 23:00:00 9.4 6 Sur 15 Sur 0 -- -- 86
2021-01-28 22:00:00 10.3 10 Sudoeste 18 Sudoeste 0 -- -- 91
2021-01-28 21:00:00 11.7 10 Sudoeste 18 Sudoeste 0 -- -- 83
2021-01-28 20:00:00 11.6 9 Sur 14 Sudoeste 0 -- -- 81
2021-01-28 19:00:00 13.8 9 Sudoeste 15 Sudoeste 0 -- -- 74
2021-01-28 18:00:00 16.4 11 Oeste 26 Sudoeste 0 -- -- 69
2021-01-28 17:00:00 17.9 12 Sudoeste 24 Sudoeste 0 -- -- 65
2021-01-28 16:00:00 18.1 16 Sudoeste 24 Oeste 0 -- -- 62
2021-01-28 15:00:00 17.6 14 Sudoeste 24 Sudoeste 0 -- -- 66
2021-01-28 14:00:00 16.4 7 Sudoeste 17 Sudoeste 0 -- -- 72
2021-01-28 13:00:00 15.5 9 Sudoeste 17 Sudoeste 0 -- -- 77
2021-01-28 12:00:00 13.9 9 Sudoeste 15 Sudoeste 0 -- -- 83
2021-01-28 11:00:00 10.8 2 Sudoeste 4 Sudoeste 0 -- -- 96
2021-01-28 10:00:00 8.3 0 Calma 5 Sudeste 0 -- -- 99
2021-01-28 09:00:00 6.1 0 Calma 4 Sudeste 0 -- -- 98
2021-01-28 08:00:00 7 0 Calma 11 Sur 0 -- -- 97
2021-01-28 07:00:00 7.5 8 Sur 11 Sudeste 0.2 -- -- 100
2021-01-28 06:00:00 6.6 5 Sudeste 10 Sudeste 0 -- -- 100
2021-01-28 05:00:00 6.3 2 Sudeste 6 Sudeste 0 -- -- 100
2021-01-28 04:00:00 6.5 2 Este 7 Sur 0 -- -- 99
2021-01-28 03:00:00 7.5 3 Sudeste 13 Sudeste 0 -- -- 99
2021-01-28 02:00:00 7.2 6 Sudeste 9 Sudeste 0 -- -- 99
2021-01-28 01:00:00 6.5 0 Calma 9 Sudeste 0 -- -- 98
2021-01-28 00:00:00 7.8 6 Sudeste 8 Sudeste 0 -- -- 99
2021-01-27 23:00:00 8.2 0 Calma 6 Sur 0 -- -- 97
2021-01-27 22:00:00 8.9 2 Sur 5 Sur 0 -- -- 97
2021-01-27 21:00:00 9.8 4 Sur 6 Sur 0 -- -- 96
2021-01-27 20:00:00 11.1 0 Calma 4 Noroeste 0 -- -- 94
2021-01-27 19:00:00 13.1 3 Noroeste 7 Noroeste 0 -- -- 90
2021-01-27 18:00:00 14.5 5 Oeste 11 Oeste 0 -- -- 84
2021-01-27 17:00:00 15 8 Oeste 13 Oeste 0 -- -- 83
2021-01-27 16:00:00 14.7 6 Oeste 14 Oeste 0 -- -- 82
2021-01-27 15:00:00 13.7 9 Oeste 14 Oeste 0 -- -- 86
2021-01-27 14:00:00 13.3 5 Oeste 13 Oeste 0 -- -- 88
2021-01-27 13:00:00 12 4 Oeste 12 Oeste 0 -- -- 91
2021-01-27 12:00:00 11.6 3 Sur 9 Oeste 0 -- -- 94
2021-01-27 11:00:00 11.1 0 Calma 7 Oeste 0 -- -- 97
2021-01-27 10:00:00 10.8 4 Oeste 8 Oeste 0 -- -- 98
2021-01-27 09:00:00 10.7 3 Sudoeste 10 Noroeste 0 -- -- 98
2021-01-27 08:00:00 10.8 5 Oeste 11 Oeste 0 -- -- 98
2021-01-27 07:00:00 10.9 5 Oeste 10 Oeste 0 -- -- 98
2021-01-27 06:00:00 11.1 5 Oeste 12 Oeste 0 -- -- 98
2021-01-27 05:00:00 11.3 7 Oeste 14 Oeste 0 -- -- 98
2021-01-27 04:00:00 11.4 6 Sudoeste 12 Sudoeste 0 -- -- 99
2021-01-27 03:00:00 11.5 8 Sudoeste 16 Oeste 0 -- -- 99
2021-01-27 02:00:00 11.7 10 Oeste 20 Oeste 0 -- -- 99
2021-01-27 01:00:00 11.7 11 Sudoeste 23 Oeste 0 -- -- 99
2021-01-27 00:00:00 11.9 9 Oeste 18 Oeste 0 -- -- 99
2021-01-26 23:00:00 12 11 Oeste 22 Sudoeste 0 -- -- 99
2021-01-26 22:00:00 12.2 11 Sudoeste 21 Sudoeste 0 -- -- 98
2021-01-26 21:00:00 12.3 14 Sudoeste 21 Oeste 0 -- -- 98
2021-01-26 20:00:00 12.5 11 Oeste 21 Sudoeste 0 -- -- 98
2021-01-26 19:00:00 12.8 9 Oeste 17 Oeste 0.2 -- -- 98
2021-01-26 18:00:00 13 10 Oeste 20 Oeste 0.2 -- -- 96
2021-01-26 17:00:00 13.5 11 Oeste 19 Oeste 0 -- -- 94
2021-01-26 16:00:00 13.5 9 Oeste 24 Oeste 0 -- -- 94
2021-01-26 15:00:00 13.5 13 Sudoeste 23 Sudoeste 0 -- -- 93
2021-01-26 14:00:00 13.3 14 Sudoeste 25 Sudoeste 0 -- -- 93
2021-01-26 13:00:00 12.8 14 Sudoeste 22 Oeste 0 -- -- 97
2021-01-26 12:00:00 11.9 11 Sudoeste 21 Sudoeste 0 -- -- 99
2021-01-26 11:00:00 11.2 10 Sudoeste 19 Sudoeste 0 -- -- 100
2021-01-26 10:00:00 10.7 11 Sudoeste 17 Sudoeste 0 -- -- 100
2021-01-26 09:00:00 10.3 8 Sudoeste 13 Sudoeste 0.4 -- -- 100
2021-01-26 08:00:00 10.2 3 Sudoeste 12 Sur 0.2 -- -- 100
2021-01-26 07:00:00 10.3 8 Sudoeste 13 Sudoeste 0 -- -- 100
2021-01-26 06:00:00 10.4 8 Sudoeste 13 Sudoeste 0 -- -- 99
2021-01-26 05:00:00 10.3 6 Sudoeste 14 Sudoeste 0 -- -- 99
2021-01-26 04:00:00 10.3 9 Sudoeste 18 Sudoeste 0 -- -- 99
2021-01-26 03:00:00 10.4 13 Sudoeste 21 Oeste 0 -- -- 99
2021-01-26 02:00:00 10.5 12 Oeste 21 Oeste 0 -- -- 99
2021-01-26 01:00:00 10.6 14 Sudoeste 21 Sudoeste 0 -- -- 99
2021-01-26 00:00:00 10.5 12 Sudoeste 19 Sudoeste 0 -- -- 99
2021-01-25 23:00:00 10.6 12 Oeste 20 Sudoeste 0 -- -- 99
2021-01-25 22:00:00 10.7 13 Sudoeste 21 Oeste 0 -- -- 99
2021-01-25 21:00:00 10.7 12 Sudoeste 21 Sudoeste 0 -- -- 99
2021-01-25 20:00:00 10.9 11 Sudoeste 23 Oeste 0 -- -- 97
2021-01-25 19:00:00 11.2 14 Oeste 25 Oeste 0 -- -- 95
2021-01-25 18:00:00 11.4 14 Oeste 25 Oeste 0 -- -- 97
2021-01-25 17:00:00 11.5 17 Oeste 30 Sudoeste 0 -- -- 96
2021-01-25 16:00:00 11.3 14 Oeste 34 Sudoeste 0.8 -- -- 98
2021-01-25 15:00:00 11.2 20 Oeste 36 Sudoeste 0.6 -- -- 97
2021-01-25 14:00:00 11.4 26 Sudoeste 42 Oeste 0.2 -- -- 95
2021-01-25 13:00:00 11.4 25 Sudoeste 41 Sudoeste 0 -- -- 93
2021-01-25 12:00:00 10.7 22 Sudoeste 34 Sudoeste 0 -- -- 96
2021-01-25 11:00:00 10.2 21 Sudoeste 37 Sudoeste 0.2 -- -- 98
2021-01-25 10:00:00 9.8 20 Sudoeste 37 Sudoeste 0.8 -- -- 98
2021-01-25 09:00:00 9.7 25 Sudoeste 38 Sudoeste 0 -- -- 97
2021-01-25 08:00:00 9.4 25 Sudoeste 39 Sudoeste 0 -- -- 96
2021-01-25 07:00:00 9.4 23 Sudoeste 43 Sudoeste 0.2 -- -- 94
2021-01-25 06:00:00 9.4 23 Sudoeste 40 Sudoeste 0 -- -- 93
2021-01-25 05:00:00 9.3 25 Sudoeste 44 Sudoeste 0 -- -- 95
2021-01-25 04:00:00 9.1 25 Sudoeste 42 Sudoeste 0 -- -- 94
2021-01-25 03:00:00 9.1 25 Sudoeste 46 Sudoeste 0 -- -- 92
2021-01-25 02:00:00 9.1 24 Sudoeste 44 Sudoeste 0 -- -- 90
2021-01-25 01:00:00 8.8 24 Sudoeste 37 Sudoeste 0 -- -- 90
2021-01-25 00:00:00 8.1 16 Sudoeste 26 Sudoeste 0 -- -- 89